Daytona Beach International Airport


Codes: KDAB/DAB
Name: Daytona Beach International Airport
City: Daytona Beach
Country: United States
Elevation: 34 ft.
Wikipedia:

Photos at Daytona Beach International Airport


   Photos courtesy of SpottingLog. You can add your own sightings and photos by signing up for a free trial today.



92-3898, 16-Feb-2020
© Nick

N2A, 16-Feb-2020
© Nick

N803DS, 16-Feb-2020
© Nick


Weather at Daytona Beach International Airport


Time (UTC)DescriptionTempratureWindCloud coverageVisibilityPressureHumidity
21-Jun-2024 12:00Light Rain25°C7 mph, N75%10000m1018hPa96%
21-Jun-2024 15:00Light Rain26°C7 mph, N74%10000m1018hPa88%
21-Jun-2024 18:00Light Rain27°C7 mph, NE78%10000m1017hPa78%
21-Jun-2024 21:00Overcast Clouds30°C4 mph, NE100%10000m1016hPa62%
22-Jun-2024 00:00Light Rain27°C7 mph, SE83%10000m1017hPa76%
22-Jun-2024 03:00Moderate Rain25°C9 mph, S65%10000m1018hPa89%
22-Jun-2024 06:00Light Rain25°C9 mph, S79%10000m1017hPa88%
22-Jun-2024 09:00Light Rain25°C7 mph, S99%10000m1017hPa90%
22-Jun-2024 12:00Overcast Clouds26°C7 mph, S99%10000m1018hPa85%
22-Jun-2024 15:00Overcast Clouds31°C7 mph, SE96%10000m1018hPa58%
22-Jun-2024 18:00Light Rain33°C11 mph, E99%10000m1016hPa53%
22-Jun-2024 21:00Light Rain31°C13 mph, SE100%10000m1015hPa62%
23-Jun-2024 00:00Moderate Rain28°C13 mph, SE80%5710m1014hPa78%
23-Jun-2024 03:00Heavy Intensity Rain23°C4 mph, NE94%10000m1017hPa91%
23-Jun-2024 06:00Light Rain25°C9 mph, S97%10000m1016hPa91%
23-Jun-2024 09:00Light Rain24°C7 mph, SW100%10000m1015hPa92%
23-Jun-2024 12:00Overcast Clouds25°C4 mph, SW99%10000m1016hPa85%
23-Jun-2024 15:00Light Rain29°C4 mph, SW50%10000m1016hPa64%
23-Jun-2024 18:00Light Rain32°C11 mph, S46%10000m1015hPa55%
23-Jun-2024 21:00Light Rain32°C11 mph, SE51%10000m1014hPa52%
24-Jun-2024 00:00Light Rain29°C9 mph, SE42%10000m1013hPa70%
24-Jun-2024 03:00Light Rain26°C4 mph, S45%10000m1015hPa82%
24-Jun-2024 06:00Light Rain25°C4 mph, SW53%10000m1014hPa92%
24-Jun-2024 09:00Light Rain25°C7 mph, SW100%10000m1014hPa92%
24-Jun-2024 12:00Light Rain26°C7 mph, W85%10000m1015hPa83%
24-Jun-2024 15:00Scattered Clouds32°C7 mph, W32%10000m1015hPa57%
24-Jun-2024 18:00Light Rain34°C7 mph, SE24%10000m1013hPa48%
24-Jun-2024 21:00Broken Clouds30°C13 mph, SE62%10000m1012hPa64%
25-Jun-2024 00:00Moderate Rain25°C11 mph, S82%10000m1013hPa89%
25-Jun-2024 03:00Broken Clouds24°C7 mph, SW68%10000m1015hPa87%
25-Jun-2024 06:00Light Rain24°C7 mph, SW72%10000m1014hPa85%
25-Jun-2024 09:00Scattered Clouds24°C4 mph, W31%10000m1014hPa89%
25-Jun-2024 12:00Scattered Clouds26°C7 mph, W32%10000m1015hPa83%
25-Jun-2024 15:00Clear Sky32°C7 mph, W10%10000m1015hPa55%
25-Jun-2024 18:00Clear Sky36°C2 mph, S9%10000m1014hPa41%
25-Jun-2024 21:00Broken Clouds31°C11 mph, SE79%10000m1012hPa61%
26-Jun-2024 00:00Light Rain29°C9 mph, S84%10000m1014hPa69%
26-Jun-2024 03:00Moderate Rain25°C9 mph, NW98%10000m1017hPa90%
26-Jun-2024 06:00Light Rain25°C7 mph, SW99%10000m1014hPa88%
26-Jun-2024 09:00Overcast Clouds24°C4 mph, W96%10000m1013hPa88%